Time;durP1;ratioP1;P1;durP2;ratioP2;P2;SDS_P1;SDS_P2;PMS_P1;PMS_P2;Temp;Humidity;BMP_temperature;BMP_pressure;BME280_temperature;BME280_humidity;BME280_pressure;Samples;Min_cycle;Max_cycle;Signal;HPM_P1;HPM_P2
2023/04/13 00:00:40;;;;;;;1.63;0.60;;;5.70;99.90;;;5.08;100.00;96113.81;5005435;28;20152;-41
2023/04/13 00:03:07;;;;;;;0.70;0.60;;;5.70;99.90;;;5.04;100.00;96107.84;5019331;28;20381;-42
2023/04/13 00:05:33;;;;;;;2.63;0.47;;;5.70;99.90;;;5.03;100.00;96115.75;5019316;28;20033;-43
2023/04/13 00:08:02;;;;;;;0.40;0.40;;;5.70;99.90;;;5.02;100.00;96114.88;5020944;28;20022;-41
2023/04/13 00:10:30;;;;;;;0.98;0.47;;;5.70;99.90;;;5.00;100.00;96121.09;5025716;28;20036;-42
2023/04/13 00:12:57;;;;;;;0.52;0.38;;;5.60;99.90;;;4.93;100.00;96115.22;5009570;28;20489;-41
2023/04/13 00:15:24;;;;;;;0.55;0.32;;;5.60;99.90;;;4.95;100.00;96129.06;4999610;28;20037;-42
2023/04/13 00:17:50;;;;;;;0.55;0.50;;;5.60;99.90;;;4.87;100.00;96131.13;5014072;28;20041;-43
2023/04/13 00:20:16;;;;;;;0.55;0.50;;;5.60;99.90;;;4.85;100.00;96139.00;5021141;28;20086;-42
2023/04/13 00:22:44;;;;;;;1.23;0.70;;;5.50;99.90;;;4.82;100.00;96151.31;5020223;28;21142;-41
2023/04/13 00:25:13;;;;;;;1.20;0.45;;;5.50;99.90;;;4.78;100.00;96153.19;5010098;28;20037;-41
2023/04/13 00:27:41;;;;;;;0.85;0.50;;;5.50;99.90;;;4.83;100.00;96147.78;5022507;28;20026;-41
2023/04/13 00:30:08;;;;;;;0.88;0.60;;;5.50;99.90;;;4.78;100.00;96124.44;5012482;28;20037;-41
2023/04/13 00:32:36;;;;;;;1.30;0.50;;;5.50;99.90;;;4.91;100.00;96143.16;5003690;28;20034;-43
2023/04/13 00:35:02;;;;;;;0.73;0.47;;;5.60;99.90;;;4.91;100.00;96138.78;5018788;28;20517;-42
2023/04/13 00:37:29;;;;;;;1.88;0.60;;;5.60;99.90;;;4.98;100.00;96142.03;5011972;28;20067;-42
2023/04/13 00:39:55;;;;;;;0.90;0.70;;;5.60;99.90;;;5.05;100.00;96135.69;5016759;28;20553;-41
2023/04/13 00:42:21;;;;;;;1.10;0.50;;;5.70;99.90;;;5.09;100.00;96129.44;4995361;28;20052;-42
2023/04/13 00:44:47;;;;;;;0.55;0.40;;;5.80;99.90;;;5.16;100.00;96137.94;4998615;28;20087;-42
2023/04/13 00:47:16;;;;;;;0.70;0.45;;;5.80;99.90;;;5.17;100.00;96131.81;5001269;28;20033;-41
2023/04/13 00:49:42;;;;;;;0.43;0.38;;;5.80;99.90;;;5.12;100.00;96128.50;4978012;28;20033;-41
2023/04/13 00:52:10;;;;;;;0.90;0.50;;;5.80;99.90;;;5.10;100.00;96128.56;4977543;28;20637;-43
2023/04/13 00:54:37;;;;;;;3.47;0.50;;;5.80;99.90;;;5.08;100.00;96132.97;4989565;28;20060;-41
2023/04/13 00:57:04;;;;;;;0.50;0.47;;;5.80;99.90;;;5.06;100.00;96126.97;4998668;28;20041;-41
2023/04/13 00:59:30;;;;;;;1.75;0.40;;;5.70;99.90;;;5.01;100.00;96121.03;4974931;28;20037;-44
2023/04/13 01:01:56;;;;;;;1.95;0.60;;;5.70;99.90;;;4.96;100.00;96122.97;4979558;28;20584;-42
2023/04/13 01:04:26;;;;;;;0.88;0.50;;;5.60;99.90;;;4.92;100.00;96127.44;4994825;28;20525;-41
2023/04/13 01:07:41;;;;;;;0.70;0.40;;;5.60;99.90;;;4.86;100.00;96137.25;5005883;28;20025;-42
2023/04/13 01:10:19;;;;;;;0.73;0.50;;;5.50;99.90;;;4.77;100.00;96131.44;4996034;28;20067;-43
2023/04/13 01:13:11;;;;;;;1.33;0.70;;;5.40;99.90;;;4.70;100.00;96139.50;4993379;28;20048;-41
2023/04/13 01:15:41;;;;;;;0.52;0.40;;;5.40;99.90;;;4.59;100.00;96137.25;4997310;28;20044;-44
2023/04/13 01:18:09;;;;;;;1.00;0.35;;;5.30;99.90;;;4.47;100.00;96125.50;4987294;28;20552;-43
2023/04/13 01:20:37;;;;;;;3.42;0.70;;;5.20;99.90;;;4.45;100.00;96140.34;5017827;28;20382;-41
2023/04/13 01:23:24;;;;;;;0.85;0.40;;;5.10;99.90;;;4.37;100.00;96137.13;5023815;28;20500;-41
2023/04/13 01:25:56;;;;;;;0.50;0.45;;;5.10;99.90;;;4.32;100.00;96132.03;4996037;28;20120;-41
2023/04/13 01:28:24;;;;;;;0.50;0.40;;;5.00;99.90;;;4.25;100.00;96132.31;4963314;28;20029;-41
2023/04/13 01:30:52;;;;;;;2.72;0.52;;;5.00;99.90;;;4.16;100.00;96133.44;4997262;28;20298;-42
2023/04/13 01:33:19;;;;;;;1.10;0.60;;;4.90;99.90;;;4.10;100.00;96133.66;4995997;28;20481;-42
2023/04/13 01:35:46;;;;;;;1.00;0.63;;;4.80;99.90;;;4.01;100.00;96127.81;4993592;28;20443;-42
2023/04/13 01:38:13;;;;;;;1.27;0.68;;;4.70;99.90;;;3.78;100.00;96093.78;5003746;28;20025;-42
2023/04/13 01:40:43;;;;;;;0.43;0.40;;;4.70;99.90;;;3.92;100.00;96125.50;5000970;28;20057;-42
2023/04/13 01:43:08;;;;;;;2.60;0.52;;;4.70;99.90;;;3.89;100.00;96129.94;4999007;28;20037;-43
2023/04/13 01:46:13;;;;;;;2.63;0.60;;;4.60;99.90;;;3.80;100.00;96120.66;4998465;28;20021;-42
2023/04/13 01:48:48;;;;;;;0.68;0.43;;;4.50;99.90;;;3.76;100.00;96113.84;4910926;29;20109;-41
2023/04/13 01:51:34;;;;;;;0.47;0.47;;;4.50;99.90;;;3.77;100.00;96126.81;4924004;29;20039;-43
2023/04/13 01:54:12;;;;;;;1.05;0.55;;;4.50;99.90;;;3.72;100.00;96133.09;4977373;28;20081;-43
2023/04/13 01:56:39;;;;;;;1.75;0.77;;;4.40;99.90;;;3.68;100.00;96124.50;4993699;28;20037;-42
2023/04/13 01:59:06;;;;;;;1.05;0.50;;;4.40;99.90;;;3.66;100.00;96109.78;4990867;28;20087;-44
2023/04/13 02:01:31;;;;;;;0.88;0.35;;;4.40;99.90;;;3.68;100.00;96111.47;4994663;28;20123;-41
2023/04/13 02:03:57;;;;;;;0.80;0.60;;;4.40;99.90;;;3.72;100.00;96107.84;4997316;28;20481;-42
2023/04/13 02:06:23;;;;;;;5.53;0.40;;;4.40;99.90;;;3.74;100.00;96110.41;5004003;28;20033;-43
2023/04/13 02:08:49;;;;;;;0.52;0.32;;;4.50;99.90;;;3.79;100.00;96113.75;4998433;28;20034;-41
2023/04/13 02:11:15;;;;;;;2.25;0.40;;;4.50;99.90;;;3.79;100.00;96114.59;4991845;28;20041;-42
2023/04/13 02:13:41;;;;;;;1.40;0.60;;;4.50;99.90;;;3.55;100.00;96084.03;4990650;28;20084;-42
2023/04/13 02:16:10;;;;;;;1.00;0.40;;;4.50;99.90;;;3.76;100.00;96126.88;5001687;28;20033;-42
2023/04/13 02:18:36;;;;;;;0.82;0.50;;;4.50;99.90;;;3.71;100.00;96132.22;5009116;28;20041;-42
2023/04/13 02:21:10;;;;;;;0.50;0.32;;;4.40;99.90;;;3.68;100.00;96126.22;5017354;28;20060;-41
2023/04/13 02:23:37;;;;;;;1.73;0.40;;;4.40;99.90;;;3.72;100.00;96126.09;5003497;28;20031;-40
2023/04/13 02:26:07;;;;;;;1.13;0.63;;;4.40;99.90;;;3.74;100.00;96121.69;5019837;28;20025;-41
2023/04/13 02:28:33;;;;;;;1.08;0.60;;;4.50;99.90;;;3.79;100.00;96126.78;5016301;28;20246;-41
2023/04/13 02:30:59;;;;;;;0.35;0.32;;;4.50;99.90;;;3.81;100.00;96133.66;5002567;28;20213;-41
2023/04/13 02:33:28;;;;;;;0.75;0.50;;;4.50;99.90;;;3.84;100.00;96130.13;4998597;28;20048;-41
2023/04/13 02:35:54;;;;;;;0.60;0.45;;;4.50;99.90;;;3.87;100.00;96140.44;4984587;28;20593;-41
2023/04/13 02:38:20;;;;;;;1.00;0.50;;;4.60;99.90;;;3.81;100.00;96130.19;5003013;28;20041;-41
2023/04/13 02:40:46;;;;;;;0.70;0.50;;;4.50;99.90;;;3.76;100.00;96130.31;5006895;28;20066;-41
2023/04/13 02:43:12;;;;;;;1.20;0.50;;;4.50;99.90;;;3.75;100.00;96119.94;5005856;28;20052;-41
2023/04/13 02:45:41;;;;;;;0.68;0.45;;;4.50;99.90;;;3.66;100.00;96128.91;5008591;28;20094;-41
2023/04/13 02:48:09;;;;;;;1.48;0.60;;;4.40;99.90;;;3.53;100.00;96109.31;5021193;23;20041;-46
2023/04/13 02:50:35;;;;;;;1.27;0.40;;;4.30;99.90;;;3.53;100.00;96125.78;5030810;28;20115;-46
2023/04/13 02:53:01;;;;;;;0.28;0.28;;;4.30;99.90;;;3.48;100.00;96121.63;5019697;28;20522;-47
2023/04/13 02:55:26;;;;;;;1.52;0.50;;;4.20;99.90;;;3.43;100.00;96121.78;5025905;28;20131;-46
2023/04/13 02:57:53;;;;;;;0.50;0.40;;;4.10;99.90;;;3.41;100.00;96120.94;5031075;28;20044;-47
2023/04/13 03:00:19;;;;;;;1.38;0.60;;;4.10;99.90;;;3.35;100.00;96126.34;5010798;28;20148;-46
2023/04/13 03:02:45;;;;;;;0.82;0.30;;;4.10;99.90;;;3.23;100.00;96120.59;5014573;28;20029;-48
2023/04/13 03:05:12;;;;;;;1.58;0.40;;;4.00;99.90;;;3.26;100.00;96114.41;5015258;28;20380;-49
2023/04/13 03:07:38;;;;;;;0.50;0.50;;;4.00;99.90;;;3.25;100.00;96134.41;5014169;28;20036;-45
2023/04/13 03:10:04;;;;;;;0.90;0.50;;;4.00;99.90;;;3.24;100.00;96127.50;5022123;28;20385;-47
2023/04/13 03:12:33;;;;;;;1.83;0.50;;;4.00;99.90;;;3.23;100.00;96132.75;5013160;28;20094;-47
2023/04/13 03:15:01;;;;;;;1.10;0.60;;;4.00;99.90;;;3.21;100.00;96138.03;5015391;28;20035;-48
2023/04/13 03:17:30;;;;;;;3.58;0.80;;;3.90;99.90;;;3.19;100.00;96128.53;5026332;28;20040;-45
2023/04/13 03:19:56;;;;;;;1.50;0.73;;;3.90;99.90;;;3.18;100.00;96139.84;5006983;28;20120;-47
2023/04/13 03:22:23;;;;;;;0.40;0.35;;;3.90;99.90;;;3.11;100.00;96135.72;5018478;28;20033;-47
2023/04/13 03:24:48;;;;;;;0.40;0.40;;;3.90;99.90;;;3.12;100.00;96142.63;5013908;28;20071;-45
2023/04/13 03:27:14;;;;;;;0.77;0.50;;;3.90;99.90;;;3.15;100.00;96137.31;5025703;28;20033;-49
2023/04/13 03:29:40;;;;;;;1.75;0.57;;;3.90;99.90;;;3.18;100.00;96137.25;5020323;28;20504;-48
2023/04/13 03:32:06;;;;;;;4.78;0.73;;;3.90;99.90;;;3.19;100.00;96137.19;5015364;28;20037;-48
2023/04/13 03:34:32;;;;;;;2.22;0.60;;;3.90;99.90;;;3.22;100.00;96142.31;5016371;28;20026;-46
2023/04/13 03:36:57;;;;;;;2.00;0.65;;;3.90;99.90;;;3.23;100.00;96138.81;5014243;28;20040;-48
2023/04/13 03:39:23;;;;;;;3.33;0.68;;;4.00;99.90;;;3.23;100.00;96146.66;5024820;28;20094;-46
2023/04/13 03:41:49;;;;;;;1.15;0.65;;;4.00;99.90;;;3.24;100.00;96152.69;5019137;28;20473;-49
2023/04/13 03:44:15;;;;;;;1.15;0.80;;;3.90;99.90;;;3.21;100.00;96144.97;5021631;28;20037;-47
2023/04/13 03:46:41;;;;;;;2.03;0.80;;;4.00;99.90;;;3.25;100.00;96157.88;5010765;28;20493;-45
2023/04/13 03:49:09;;;;;;;3.42;1.02;;;4.00;99.90;;;3.26;100.00;96158.72;5014426;28;20104;-48
2023/04/13 03:51:36;;;;;;;1.52;0.68;;;4.00;99.90;;;3.27;100.00;96164.78;5013418;28;20111;-45
2023/04/13 03:54:02;;;;;;;1.42;0.73;;;4.00;99.90;;;3.25;100.00;96164.84;5019230;28;20034;-47
2023/04/13 03:56:29;;;;;;;1.50;0.98;;;4.00;99.90;;;3.40;100.00;96168.75;5013825;28;20029;-47
2023/04/13 03:58:55;;;;;;;0.93;0.70;;;4.10;99.90;;;3.53;100.00;96169.25;5015800;28;20044;-45
2023/04/13 04:01:22;;;;;;;2.78;0.70;;;4.20;99.90;;;3.69;100.00;96175.72;5018322;28;20037;-47
2023/04/13 04:03:48;;;;;;;1.70;0.70;;;4.40;99.90;;;3.83;100.00;96178.78;5013022;28;20033;-48
2023/04/13 04:06:14;;;;;;;1.17;0.75;;;4.50;99.90;;;3.94;100.00;96181.06;5019475;28;20043;-46
2023/04/13 04:08:40;;;;;;;1.42;0.70;;;4.60;99.90;;;4.06;100.00;96181.63;5023450;28;20119;-48
2023/04/13 04:11:06;;;;;;;2.65;0.70;;;4.80;99.90;;;4.14;100.00;96192.66;5016329;28;20041;-45
2023/04/13 04:13:31;;;;;;;2.75;0.80;;;4.90;99.90;;;4.23;100.00;96192.38;5012176;28;20030;-48
2023/04/13 04:15:57;;;;;;;2.53;0.80;;;4.90;99.90;;;4.33;100.00;96190.34;5023061;28;20427;-45
2023/04/13 04:18:23;;;;;;;2.80;0.70;;;5.00;99.90;;;4.35;100.00;96191.16;5024849;28;20037;-45
2023/04/13 04:20:49;;;;;;;1.50;0.73;;;5.10;99.90;;;4.38;100.00;96189.28;5028929;28;20029;-44
2023/04/13 04:23:16;;;;;;;1.35;0.73;;;5.10;99.90;;;4.41;100.00;96185.72;5021213;28;20045;-44
2023/04/13 04:25:44;;;;;;;2.20;0.90;;;5.10;99.90;;;4.42;100.00;96176.16;5024119;28;20024;-49
2023/04/13 04:28:16;;;;;;;1.45;0.70;;;5.20;99.90;;;4.36;100.00;96164.13;5025537;28;20033;-47
2023/04/13 04:30:44;;;;;;;5.35;0.80;;;5.10;99.90;;;4.42;100.00;96178.75;5021208;28;20044;-45
2023/04/13 04:33:11;;;;;;;1.27;0.63;;;5.20;99.90;;;4.44;100.00;96177.78;5024717;28;20029;-49
2023/04/13 04:35:50;;;;;;;4.47;0.90;;;5.20;99.90;;;4.46;100.00;96185.56;5024147;28;20057;-47
2023/04/13 04:38:16;;;;;;;1.83;0.80;;;5.20;99.90;;;4.45;100.00;96182.13;5025217;28;20481;-44
2023/04/13 04:40:44;;;;;;;2.05;1.00;;;5.20;99.90;;;4.52;100.00;96183.63;5025173;28;20428;-47
2023/04/13 04:43:13;;;;;;;2.47;0.90;;;5.30;99.90;;;4.53;100.00;96190.53;5026406;28;20033;-44
2023/04/13 04:45:45;;;;;;;2.83;0.85;;;5.30;99.90;;;4.54;100.00;96191.38;5021517;28;20112;-46
2023/04/13 04:48:12;;;;;;;3.42;0.90;;;5.30;99.90;;;4.55;100.00;96196.56;5022953;28;20118;-47
2023/04/13 04:50:38;;;;;;;2.00;0.70;;;5.30;99.90;;;4.59;100.00;96185.16;5021795;28;20411;-45
2023/04/13 04:53:05;;;;;;;3.97;0.85;;;5.30;99.90;;;4.64;100.00;96197.19;5022076;28;20037;-47
2023/04/13 04:55:31;;;;;;;3.15;0.80;;;5.40;99.90;;;4.69;100.00;96203.97;5021517;28;20485;-46
2023/04/13 04:57:56;;;;;;;3.33;0.70;;;5.40;99.90;;;4.74;100.00;96203.81;5006857;28;20041;-45
2023/04/13 05:00:25;;;;;;;3.22;0.85;;;5.50;99.90;;;4.71;100.00;96188.25;5019951;28;20033;-48
2023/04/13 05:02:51;;;;;;;5.25;1.00;;;5.50;99.90;;;4.73;100.00;96184.66;5010529;28;20037;-46
2023/04/13 05:05:17;;;;;;;2.45;0.80;;;5.50;99.90;;;4.82;100.00;96193.97;5025148;28;20477;-46
2023/04/13 05:07:43;;;;;;;1.48;0.75;;;5.50;99.90;;;4.87;100.00;96191.19;5019011;28;20048;-48
2023/04/13 05:10:09;;;;;;;5.35;0.88;;;5.60;99.90;;;4.96;100.00;96193.50;5023356;28;20025;-46
2023/04/13 05:12:35;;;;;;;2.22;0.70;;;5.60;99.90;;;4.96;100.00;96185.66;5005447;28;20022;-44
2023/04/13 05:15:01;;;;;;;3.90;1.00;;;5.70;99.90;;;5.05;100.00;96203.63;5006407;28;20036;-44
2023/04/13 05:17:27;;;;;;;1.67;0.80;;;5.70;99.90;;;5.07;100.00;96193.97;5019114;28;20029;-47
2023/04/13 05:19:53;;;;;;;1.45;0.90;;;5.80;99.90;;;5.13;100.00;96198.13;5016657;28;20657;-46
2023/04/13 05:22:19;;;;;;;5.05;1.00;;;5.80;99.90;;;5.16;100.00;96204.09;5007646;28;20046;-45
2023/04/13 05:24:45;;;;;;;2.30;1.08;;;5.80;99.90;;;5.23;100.00;96191.69;5016812;28;20036;-44
2023/04/13 05:27:12;;;;;;;3.53;0.85;;;5.90;99.90;;;5.22;100.00;96197.81;5017787;28;20029;-45
2023/04/13 05:29:39;;;;;;;5.47;0.80;;;5.90;99.90;;;5.22;100.00;96194.34;5018074;28;20037;-46
2023/04/13 05:32:05;;;;;;;2.85;0.85;;;5.90;99.90;;;5.22;100.00;96197.81;5024630;28;20039;-44
2023/04/13 05:34:32;;;;;;;3.60;1.02;;;5.90;99.90;;;5.28;100.00;96204.59;5023162;28;20489;-44
2023/04/13 05:36:58;;;;;;;4.18;0.93;;;5.90;99.90;;;5.21;100.00;96197.88;5023405;28;20094;-44
2023/04/13 05:39:24;;;;;;;5.13;1.30;;;6.00;99.90;;;5.31;100.00;96209.72;5016838;28;20033;-47
2023/04/13 05:41:50;;;;;;;3.05;0.90;;;6.00;99.90;;;5.37;100.00;96212.13;5014943;28;20025;-45
2023/04/13 05:44:16;;;;;;;5.07;0.88;;;6.00;99.90;;;5.38;100.00;96215.59;5016503;28;20030;-47
2023/04/13 05:46:42;;;;;;;5.00;1.17;;;6.10;99.90;;;5.38;100.00;96215.59;5014494;28;20036;-47
2023/04/13 05:49:08;;;;;;;2.50;0.90;;;6.10;99.90;;;5.38;100.00;96215.59;5014374;28;20037;-42
2023/04/13 05:51:34;;;;;;;4.85;1.17;;;6.10;99.90;;;5.37;100.00;96217.34;5019696;28;20032;-42
2023/04/13 05:54:01;;;;;;;2.90;0.98;;;6.10;99.90;;;5.40;100.00;96224.22;5010847;28;20584;-42
2023/04/13 05:56:30;;;;;;;4.40;1.08;;;6.10;99.90;;;5.39;100.00;96223.38;5017761;28;20037;-42
2023/04/13 05:58:56;;;;;;;5.13;0.80;;;6.20;99.90;;;5.46;100.00;96221.41;5019852;28;20056;-42
2023/04/13 06:01:23;;;;;;;3.03;0.95;;;6.20;99.90;;;5.53;100.00;96228.13;5014341;28;20497;-43
2023/04/13 06:03:49;;;;;;;7.68;1.00;;;6.30;99.90;;;5.60;100.00;96229.63;5018077;28;20041;-43
2023/04/13 06:06:19;;;;;;;2.95;0.88;;;6.30;99.90;;;5.70;100.00;96232.75;5015322;28;20512;-43
2023/04/13 06:08:45;;;;;;;5.30;1.30;;;6.40;99.90;;;5.87;100.00;96240.84;5019676;28;20028;-42
2023/04/13 06:11:11;;;;;;;1.88;0.73;;;6.50;99.90;;;5.96;100.00;96244.03;5016605;28;20090;-43
2023/04/13 06:16:17;;;;;;;3.90;1.10;;;6.70;99.90;;;6.24;100.00;96244.69;5060191;27;20413;-42
2023/04/13 06:18:43;;;;;;;2.58;0.90;;;6.90;99.90;;;6.33;100.00;96237.41;5040108;28;20044;-47
2023/04/13 06:21:09;;;;;;;3.20;0.80;;;7.00;99.90;;;6.30;100.00;96249.72;5027918;28;20034;-43
2023/04/13 06:23:36;;;;;;;2.97;0.77;;;6.90;99.90;;;6.25;100.00;96248.19;5024838;28;20045;-43
2023/04/13 06:26:02;;;;;;;3.63;1.05;;;6.90;99.90;;;6.13;100.00;96241.66;5027595;28;20091;-42
2023/04/13 06:28:29;;;;;;;4.38;0.77;;;6.80;99.90;;;5.95;100.00;96242.31;5023015;28;21980;-41
2023/04/13 06:30:55;;;;;;;3.92;0.80;;;6.70;99.90;;;5.99;100.00;96249.16;5021326;28;20060;-43
2023/04/13 06:33:22;;;;;;;4.68;1.02;;;6.60;99.90;;;6.09;100.00;96255.78;5023425;28;20045;-40
2023/04/13 06:35:51;;;;;;;3.95;1.10;;;6.70;99.90;;;6.32;100.00;96254.91;5028764;28;20025;-44
2023/04/13 06:38:17;;;;;;;5.13;1.20;;;7.00;99.90;;;6.58;100.00;96251.25;5029941;28;20118;-42
2023/04/13 06:40:43;;;;;;;4.38;1.00;;;7.20;99.90;;;6.86;100.00;96252.78;5029293;28;20037;-44
2023/04/13 06:43:08;;;;;;;3.30;0.90;;;7.50;99.90;;;7.09;100.00;96259.72;5026069;28;20091;-43
2023/04/13 06:45:34;;;;;;;4.90;1.00;;;7.70;99.90;;;7.32;100.00;96252.63;5032675;28;20029;-45
2023/04/13 06:48:00;;;;;;;5.93;0.98;;;7.90;99.90;;;7.42;100.00;96249.56;5026391;28;20524;-43
2023/04/13 06:50:26;;;;;;;4.57;0.90;;;8.10;99.90;;;7.52;100.00;96268.41;5035452;28;20083;-42
2023/04/13 06:52:52;;;;;;;6.65;0.90;;;8.10;99.90;;;7.60;100.00;96271.53;5025122;28;20074;-44
2023/04/13 06:55:17;;;;;;;3.78;0.98;;;8.20;99.90;;;7.86;100.00;96271.31;5028697;28;20037;-42
2023/04/13 06:57:43;;;;;;;2.58;0.88;;;8.50;99.90;;;7.84;100.00;96251.25;5027017;28;20037;-43
2023/04/13 07:00:13;;;;;;;5.38;0.90;;;8.60;99.90;;;7.95;100.00;96271.78;5021643;28;20759;-45
2023/04/13 07:02:40;;;;;;;3.30;1.00;;;8.60;99.90;;;7.96;100.00;96264.75;5003159;28;22336;-43
2023/04/13 07:05:06;;;;;;;4.40;1.02;;;8.70;99.90;;;8.17;100.00;96266.41;5016636;28;20144;-44
2023/04/13 07:07:33;;;;;;;3.30;0.90;;;8.80;99.90;;;8.27;100.00;96264.19;5024771;28;20038;-45
2023/04/13 07:09:58;;;;;;;2.55;0.80;;;8.90;99.90;;;8.30;100.00;96257.97;5024086;28;20104;-43
2023/04/13 07:12:24;;;;;;;2.95;0.90;;;8.90;99.90;;;8.14;100.00;96258.66;5025338;28;20476;-43
2023/04/13 07:14:50;;;;;;;3.45;1.00;;;8.90;99.90;;;8.18;100.00;96256.72;5026672;28;20050;-42
2023/04/13 07:17:16;;;;;;;3.20;1.02;;;8.90;99.90;;;8.19;100.00;96254.03;5027142;28;20409;-46
2023/04/13 07:19:46;;;;;;;5.00;0.88;;;8.90;99.90;;;8.21;100.00;96253.97;5026718;28;20056;-43
2023/04/13 07:22:13;;;;;;;2.13;0.80;;;8.90;99.90;;;8.16;100.00;96250.72;5025051;28;20041;-43
2023/04/13 07:24:38;;;;;;;6.70;1.17;;;8.90;99.90;;;8.34;100.00;96256.88;5026488;28;20037;-43
2023/04/13 07:27:04;;;;;;;5.60;1.67;;;9.00;99.90;;;8.50;100.00;96257.91;5018320;28;20033;-43
2023/04/13 07:29:30;;;;;;;2.90;1.00;;;9.20;99.90;;;8.39;97.47;96261.00;5015961;28;20034;-43
2023/04/13 07:32:05;;;;;;;20.35;4.50;;;9.20;99.90;;;8.48;100.00;96256.28;5005062;28;20037;-45
2023/04/13 07:34:30;;;;;;;10.02;1.63;;;9.20;99.90;;;8.47;99.11;96267.69;5006745;28;20397;-42
2023/04/13 07:36:56;;;;;;;5.90;1.80;;;9.20;99.90;;;8.47;99.71;96262.44;5004192;28;20042;-46
2023/04/13 07:39:22;;;;;;;3.58;0.95;;;9.20;99.90;;;8.45;94.34;96270.41;5006634;28;20544;-44
2023/04/13 07:42:44;;;;;;;4.72;1.55;;;9.20;99.90;;;8.53;100.00;96265.66;5007935;28;20108;-44
2023/04/13 07:45:09;;;;;;;9.82;1.52;;;9.30;99.90;;;8.46;100.00;96264.22;5013178;28;20038;-43
2023/04/13 07:47:36;;;;;;;5.43;1.40;;;9.30;99.90;;;8.43;100.00;96256.50;5014220;28;20029;-44
2023/04/13 07:50:04;;;;;;;6.88;1.48;;;9.20;99.90;;;8.22;100.00;96261.78;5013771;28;20425;-45
2023/04/13 07:52:30;;;;;;;5.82;1.50;;;9.10;99.90;;;8.21;100.00;96259.22;5012329;28;20025;-46
2023/04/13 07:54:56;;;;;;;8.65;1.98;;;9.00;99.90;;;8.19;100.00;96251.41;5010854;28;20028;-44
2023/04/13 07:57:21;;;;;;;6.97;1.10;;;9.00;99.90;;;8.15;100.00;96255.13;5013430;28;20501;-43
2023/04/13 07:59:47;;;;;;;5.00;1.40;;;9.00;99.90;;;7.94;100.00;96227.22;5008842;28;20030;-43
2023/04/13 08:02:13;;;;;;;3.08;1.23;;;8.80;99.90;;;8.00;100.00;96255.78;5005077;28;20029;-43
2023/04/13 08:04:39;;;;;;;18.50;4.28;;;8.70;99.90;;;7.91;100.00;96258.84;5007162;28;20042;-43
2023/04/13 08:07:06;;;;;;;28.48;6.00;;;8.50;99.90;;;7.75;100.00;96258.66;5013242;28;20080;-43
2023/04/13 08:09:38;;;;;;;46.88;11.77;;;8.30;99.90;;;7.53;100.00;96262.22;5014931;28;20092;-43
2023/04/13 08:12:03;;;;;;;75.30;15.18;;;8.10;99.90;;;7.37;100.00;96256.75;5008207;28;20335;-43
2023/04/13 08:14:29;;;;;;;3.90;1.08;;;7.90;99.90;;;7.22;100.00;96276.63;5012829;28;20401;-43
2023/04/13 08:16:55;;;;;;;3.95;1.13;;;7.70;99.90;;;7.19;100.00;96284.63;5004093;28;20114;-43
2023/04/13 08:19:21;;;;;;;9.35;2.05;;;7.60;99.90;;;7.29;100.00;96285.09;5007911;28;20124;-42
2023/04/13 08:21:47;;;;;;;8.35;1.63;;;7.70;99.90;;;7.43;100.00;96276.66;5010220;28;20315;-43
2023/04/13 08:24:13;;;;;;;7.53;1.33;;;7.80;99.90;;;7.54;100.00;96282.28;5009717;28;20467;-41
2023/04/13 08:26:39;;;;;;;6.65;1.65;;;8.00;99.90;;;7.65;100.00;96280.06;5014603;28;20500;-44
2023/04/13 08:29:04;;;;;;;3.83;1.30;;;8.20;99.90;;;7.92;100.00;96289.44;5012322;28;20163;-45
2023/04/13 08:31:31;;;;;;;10.05;1.50;;;8.40;99.90;;;7.99;100.00;96278.59;5009016;28;20877;-43
2023/04/13 08:33:57;;;;;;;10.52;2.78;;;8.50;99.90;;;8.07;100.00;96287.88;5009616;28;20513;-42
2023/04/13 08:36:22;;;;;;;16.95;3.70;;;8.70;99.90;;;8.35;100.00;96282.25;5017130;28;20222;-42
2023/04/13 08:38:48;;;;;;;7.90;1.20;;;8.90;99.90;;;8.52;100.00;96286.75;5011241;28;20029;-42
2023/04/13 08:41:16;;;;;;;10.18;1.80;;;9.10;99.90;;;8.49;100.00;96279.00;5009356;28;20083;-43
2023/04/13 08:43:42;;;;;;;9.45;1.60;;;9.20;99.90;;;8.58;100.00;96286.47;5013616;28;20129;-44
2023/04/13 08:46:08;;;;;;;5.72;2.58;;;9.30;99.90;;;8.66;100.00;96284.31;5008058;28;20042;-45
2023/04/13 08:48:40;;;;;;;5.10;1.83;;;9.30;99.90;;;8.68;100.00;96295.59;5025324;22;20037;-47
2023/04/13 08:51:07;;;;;;;13.75;2.58;;;9.30;99.90;;;8.66;99.83;96294.00;5019784;28;20044;-45
2023/04/13 08:53:33;;;;;;;7.07;1.35;;;9.30;99.90;;;8.58;100.00;96296.97;5004426;28;20301;-46
2023/04/13 08:56:00;;;;;;;14.88;3.35;;;9.30;99.90;;;8.51;100.00;96296.41;5014304;28;20033;-46
2023/04/13 08:58:28;;;;;;;8.23;2.05;;;9.30;99.90;;;8.56;100.00;96299.69;5024399;28;20028;-48
2023/04/13 09:00:55;;;;;;;6.72;1.33;;;9.30;99.90;;;8.62;100.00;96292.44;5018563;28;20040;-47
2023/04/13 09:03:24;;;;;;;5.25;1.13;;;9.40;99.90;;;8.73;99.44;96293.63;5012461;28;20036;-48
2023/04/13 09:06:01;;;;;;;7.32;1.25;;;9.50;99.90;;;8.82;100.00;96280.97;5005676;28;20045;-46
2023/04/13 09:08:33;;;;;;;6.05;1.08;;;9.60;99.90;;;9.14;100.00;96292.56;5012018;28;20143;-47
2023/04/13 09:10:59;;;;;;;7.75;1.70;;;9.90;99.90;;;9.20;94.83;96302.78;5003742;28;20037;-47
2023/04/13 09:13:25;;;;;;;6.72;1.48;;;10.00;99.90;;;9.42;100.00;96288.56;5011623;28;20273;-47
2023/04/13 09:15:51;;;;;;;6.03;1.27;;;10.10;99.90;;;9.69;100.00;96286.31;5030523;28;20037;-46
2023/04/13 09:18:17;;;;;;;8.50;1.50;;;10.40;99.90;;;9.79;93.49;96292.81;5029951;28;20762;-50
2023/04/13 09:20:42;;;;;;;3.13;1.10;;;10.60;99.90;;;9.96;89.38;96294.59;5010535;28;20479;-48
2023/04/13 09:23:15;;;;;;;11.32;2.08;;;10.70;99.90;;;10.18;89.09;96282.91;5023436;28;20243;-49
2023/04/13 09:25:42;;;;;;;21.35;3.58;;;10.90;99.90;;;10.31;87.14;96292.72;5023622;28;20278;-49
2023/04/13 09:28:16;;;;;;;16.70;2.63;;;11.00;99.90;;;10.40;81.74;96282.66;5024272;28;20047;-45
2023/04/13 09:30:41;;;;;;;14.38;3.55;;;11.10;99.90;;;10.47;82.20;96279.59;5028701;28;20060;-47
2023/04/13 09:33:09;;;;;;;13.85;3.20;;;11.20;99.90;;;10.61;82.06;96275.34;5026837;28;20489;-49
2023/04/13 09:35:36;;;;;;;5.95;1.67;;;11.30;99.90;;;10.66;78.11;96276.81;5026053;28;20453;-50
2023/04/13 09:38:03;;;;;;;15.55;2.63;;;11.30;99.90;;;10.56;84.73;96280.03;5029185;28;20143;-51
2023/04/13 09:40:29;;;;;;;6.57;1.13;;;11.30;99.90;;;10.37;82.13;96275.72;5028630;28;20596;-45
2023/04/13 09:43:02;;;;;;;11.13;1.58;;;11.10;99.90;;;10.07;81.36;96279.06;5017959;28;20523;-47
2023/04/13 09:45:45;;;;;;;26.52;4.25;;;10.80;99.90;;;9.87;85.90;96279.25;5020859;28;20029;-47
2023/04/13 09:48:20;;;;;;;9.77;1.90;;;10.70;99.90;;;9.80;75.95;96284.00;5031707;28;20103;-48
2023/04/13 09:51:05;;;;;;;6.20;1.30;;;10.60;99.90;;;9.57;74.21;96284.31;5028101;28;20370;-47
2023/04/13 09:53:43;;;;;;;9.10;2.35;;;10.40;99.90;;;9.31;84.19;96289.09;5006611;28;20500;-48
2023/04/13 09:56:09;;;;;;;27.27;5.93;;;10.10;99.90;;;8.96;84.83;96283.78;5018513;28;20072;-46
2023/04/13 09:58:45;;;;;;;21.50;6.60;;;9.80;99.90;;;8.86;86.98;96288.63;5023512;28;20083;-46
2023/04/13 10:01:15;;;;;;;3.97;1.40;;;9.50;99.90;;;8.85;85.61;96279.06;5025430;28;20035;-49
2023/04/13 10:03:42;;;;;;;25.35;5.53;;;9.50;99.90;;;8.89;94.09;96280.59;5025031;28;21055;-50
2023/04/13 10:06:08;;;;;;;3.42;1.30;;;9.50;99.90;;;8.85;92.54;96280.84;5025179;28;20028;-49
2023/04/13 10:08:41;;;;;;;4.65;1.00;;;9.50;99.90;;;8.82;91.36;96284.44;5027509;28;20458;-51
2023/04/13 10:11:12;;;;;;;4.18;1.27;;;9.50;99.90;;;8.88;91.26;96278.03;5020459;28;20174;-47
2023/04/13 10:13:48;;;;;;;3.95;1.08;;;9.60;99.90;;;8.89;89.38;96267.44;5022211;28;20063;-51
2023/04/13 10:16:38;;;;;;;4.95;1.25;;;9.70;99.90;;;9.10;93.35;96273.44;5007819;28;20029;-50
2023/04/13 10:19:15;;;;;;;5.70;1.27;;;9.80;99.90;;;9.13;85.02;96265.41;5007152;28;20024;-49
2023/04/13 10:21:44;;;;;;;3.78;1.13;;;9.90;99.90;;;9.28;83.94;96270.84;5025946;28;20032;-49
2023/04/13 10:24:11;;;;;;;34.80;7.70;;;10.00;99.90;;;9.44;99.68;96263.00;5030534;28;20041;-48
2023/04/13 10:26:39;;;;;;;10.68;1.88;;;10.10;99.90;;;9.30;96.63;96271.63;5027727;28;20033;-46
2023/04/13 10:29:07;;;;;;;10.43;1.77;;;10.00;99.90;;;9.03;92.77;96251.00;5026568;28;20037;-47
2023/04/13 10:31:40;;;;;;;14.73;2.50;;;9.90;99.90;;;9.07;94.21;96252.56;5022046;28;20033;-49